sensor_id;sensor_type;location;lat;lon;timestamp;P1;durP1;ratioP1;P2;durP2;ratioP2
4839;SDS011;2434;48.486;7.964;2022-11-15T00:01:27;4.30;;;2.13;;
4839;SDS011;2434;48.486;7.964;2022-11-15T00:04:15;2.03;;;1.83;;
4839;SDS011;2434;48.486;7.964;2022-11-15T00:07:02;2.30;;;2.10;;
4839;SDS011;2434;48.486;7.964;2022-11-15T00:09:49;2.87;;;2.03;;
4839;SDS011;2434;48.486;7.964;2022-11-15T00:12:38;3.53;;;2.20;;
4839;SDS011;2434;48.486;7.964;2022-11-15T00:15:24;2.20;;;2.10;;
4839;SDS011;2434;48.486;7.964;2022-11-15T00:18:12;3.77;;;1.70;;
4839;SDS011;2434;48.486;7.964;2022-11-15T00:21:03;5.60;;;2.47;;
4839;SDS011;2434;48.486;7.964;2022-11-15T00:23:51;1.90;;;1.70;;
4839;SDS011;2434;48.486;7.964;2022-11-15T00:26:38;4.20;;;1.97;;
4839;SDS011;2434;48.486;7.964;2022-11-15T00:29:26;5.20;;;2.97;;
4839;SDS011;2434;48.486;7.964;2022-11-15T00:32:13;2.40;;;2.00;;
4839;SDS011;2434;48.486;7.964;2022-11-15T00:35:00;3.10;;;2.30;;
4839;SDS011;2434;48.486;7.964;2022-11-15T00:37:48;2.33;;;2.00;;
4839;SDS011;2434;48.486;7.964;2022-11-15T00:40:34;1.83;;;1.73;;
4839;SDS011;2434;48.486;7.964;2022-11-15T00:43:22;6.70;;;2.00;;
4839;SDS011;2434;48.486;7.964;2022-11-15T00:46:10;3.00;;;2.00;;
4839;SDS011;2434;48.486;7.964;2022-11-15T00:48:57;5.17;;;2.57;;
4839;SDS011;2434;48.486;7.964;2022-11-15T00:51:43;5.20;;;1.77;;
4839;SDS011;2434;48.486;7.964;2022-11-15T00:54:31;3.23;;;2.30;;
4839;SDS011;2434;48.486;7.964;2022-11-15T00:57:17;3.90;;;1.87;;
4839;SDS011;2434;48.486;7.964;2022-11-15T01:00:05;5.13;;;2.60;;
4839;SDS011;2434;48.486;7.964;2022-11-15T01:02:54;3.30;;;2.03;;
4839;SDS011;2434;48.486;7.964;2022-11-15T01:05:41;7.63;;;2.20;;
4839;SDS011;2434;48.486;7.964;2022-11-15T01:08:29;6.83;;;2.20;;
4839;SDS011;2434;48.486;7.964;2022-11-15T01:11:16;3.27;;;1.80;;
4839;SDS011;2434;48.486;7.964;2022-11-15T01:14:03;2.20;;;2.00;;
4839;SDS011;2434;48.486;7.964;2022-11-15T01:16:50;2.70;;;2.30;;
4839;SDS011;2434;48.486;7.964;2022-11-15T01:19:39;2.07;;;1.80;;
4839;SDS011;2434;48.486;7.964;2022-11-15T01:22:25;2.87;;;2.20;;
4839;SDS011;2434;48.486;7.964;2022-11-15T01:25:12;1.73;;;1.63;;
4839;SDS011;2434;48.486;7.964;2022-11-15T01:27:59;2.53;;;2.10;;
4839;SDS011;2434;48.486;7.964;2022-11-15T01:30:46;2.23;;;2.03;;
4839;SDS011;2434;48.486;7.964;2022-11-15T01:33:34;2.53;;;1.80;;
4839;SDS011;2434;48.486;7.964;2022-11-15T01:36:23;3.47;;;2.10;;
4839;SDS011;2434;48.486;7.964;2022-11-15T01:39:11;2.70;;;1.90;;
4839;SDS011;2434;48.486;7.964;2022-11-15T01:41:58;2.63;;;1.90;;
4839;SDS011;2434;48.486;7.964;2022-11-15T01:44:46;8.70;;;2.87;;
4839;SDS011;2434;48.486;7.964;2022-11-15T01:47:35;3.33;;;2.03;;
4839;SDS011;2434;48.486;7.964;2022-11-15T01:50:25;4.07;;;2.23;;
4839;SDS011;2434;48.486;7.964;2022-11-15T01:53:19;2.77;;;2.50;;
4839;SDS011;2434;48.486;7.964;2022-11-15T01:56:09;2.60;;;2.30;;
4839;SDS011;2434;48.486;7.964;2022-11-15T01:59:00;2.80;;;2.40;;
4839;SDS011;2434;48.486;7.964;2022-11-15T02:01:52;2.70;;;2.50;;
4839;SDS011;2434;48.486;7.964;2022-11-15T02:04:40;5.87;;;2.50;;
4839;SDS011;2434;48.486;7.964;2022-11-15T02:07:28;6.63;;;3.17;;
4839;SDS011;2434;48.486;7.964;2022-11-15T02:10:19;4.90;;;2.53;;
4839;SDS011;2434;48.486;7.964;2022-11-15T02:13:07;4.10;;;2.60;;
4839;SDS011;2434;48.486;7.964;2022-11-15T02:15:56;4.10;;;2.77;;
4839;SDS011;2434;48.486;7.964;2022-11-15T02:18:48;6.67;;;2.97;;
4839;SDS011;2434;48.486;7.964;2022-11-15T02:21:40;2.80;;;2.40;;
4839;SDS011;2434;48.486;7.964;2022-11-15T02:24:49;4.43;;;2.60;;
4839;SDS011;2434;48.486;7.964;2022-11-15T02:31:13;4.77;;;2.80;;
4839;SDS011;2434;48.486;7.964;2022-11-15T02:34:08;3.10;;;2.80;;
4839;SDS011;2434;48.486;7.964;2022-11-15T02:37:03;4.30;;;3.10;;
4839;SDS011;2434;48.486;7.964;2022-11-15T02:39:58;2.97;;;2.67;;
4839;SDS011;2434;48.486;7.964;2022-11-15T02:42:54;7.63;;;2.43;;
4839;SDS011;2434;48.486;7.964;2022-11-15T02:46:02;2.97;;;2.67;;
4839;SDS011;2434;48.486;7.964;2022-11-15T02:48:56;2.83;;;2.30;;
4839;SDS011;2434;48.486;7.964;2022-11-15T02:51:44;2.73;;;2.20;;
4839;SDS011;2434;48.486;7.964;2022-11-15T02:54:33;2.83;;;2.53;;
4839;SDS011;2434;48.486;7.964;2022-11-15T02:57:23;2.73;;;2.20;;
4839;SDS011;2434;48.486;7.964;2022-11-15T03:00:21;3.73;;;2.83;;
4839;SDS011;2434;48.486;7.964;2022-11-15T03:03:24;2.37;;;2.20;;
4839;SDS011;2434;48.486;7.964;2022-11-15T03:06:30;3.40;;;2.27;;
4839;SDS011;2434;48.486;7.964;2022-11-15T03:09:25;4.93;;;2.07;;
4839;SDS011;2434;48.486;7.964;2022-11-15T03:12:20;3.70;;;2.60;;
4839;SDS011;2434;48.486;7.964;2022-11-15T03:15:16;2.50;;;2.30;;
4839;SDS011;2434;48.486;7.964;2022-11-15T03:18:10;2.10;;;1.90;;
4839;SDS011;2434;48.486;7.964;2022-11-15T03:21:03;2.63;;;2.43;;
4839;SDS011;2434;48.486;7.964;2022-11-15T03:23:54;4.43;;;2.73;;
4839;SDS011;2434;48.486;7.964;2022-11-15T03:26:44;2.97;;;1.70;;
4839;SDS011;2434;48.486;7.964;2022-11-15T03:29:32;6.10;;;2.10;;
4839;SDS011;2434;48.486;7.964;2022-11-15T03:32:23;3.20;;;2.10;;
4839;SDS011;2434;48.486;7.964;2022-11-15T03:35:14;3.47;;;1.97;;
4839;SDS011;2434;48.486;7.964;2022-11-15T03:38:06;2.70;;;1.67;;
4839;SDS011;2434;48.486;7.964;2022-11-15T03:41:04;6.83;;;2.17;;
4839;SDS011;2434;48.486;7.964;2022-11-15T03:43:56;2.73;;;2.00;;
4839;SDS011;2434;48.486;7.964;2022-11-15T03:46:50;2.80;;;2.20;;
4839;SDS011;2434;48.486;7.964;2022-11-15T03:49:44;1.93;;;1.77;;
4839;SDS011;2434;48.486;7.964;2022-11-15T03:52:35;2.63;;;2.40;;
4839;SDS011;2434;48.486;7.964;2022-11-15T03:55:23;2.00;;;1.80;;
4839;SDS011;2434;48.486;7.964;2022-11-15T03:58:11;6.50;;;2.47;;
4839;SDS011;2434;48.486;7.964;2022-11-15T04:00:58;3.60;;;2.33;;
4839;SDS011;2434;48.486;7.964;2022-11-15T04:03:45;2.70;;;2.23;;
4839;SDS011;2434;48.486;7.964;2022-11-15T04:06:32;4.20;;;2.23;;
4839;SDS011;2434;48.486;7.964;2022-11-15T04:09:19;4.30;;;2.73;;
4839;SDS011;2434;48.486;7.964;2022-11-15T04:12:06;2.20;;;2.00;;
4839;SDS011;2434;48.486;7.964;2022-11-15T04:14:54;1.77;;;1.60;;
4839;SDS011;2434;48.486;7.964;2022-11-15T04:17:53;6.17;;;1.90;;
4839;SDS011;2434;48.486;7.964;2022-11-15T04:20:41;3.13;;;1.47;;
4839;SDS011;2434;48.486;7.964;2022-11-15T04:23:56;2.73;;;1.67;;
4839;SDS011;2434;48.486;7.964;2022-11-15T04:26:58;1.67;;;1.50;;
4839;SDS011;2434;48.486;7.964;2022-11-15T04:29:45;1.70;;;1.60;;
4839;SDS011;2434;48.486;7.964;2022-11-15T04:32:33;3.33;;;1.50;;
4839;SDS011;2434;48.486;7.964;2022-11-15T04:35:20;1.83;;;1.50;;
4839;SDS011;2434;48.486;7.964;2022-11-15T04:38:08;2.70;;;1.50;;
4839;SDS011;2434;48.486;7.964;2022-11-15T04:40:57;3.40;;;2.03;;
4839;SDS011;2434;48.486;7.964;2022-11-15T04:43:44;3.77;;;1.33;;
4839;SDS011;2434;48.486;7.964;2022-11-15T04:46:32;7.63;;;1.63;;
4839;SDS011;2434;48.486;7.964;2022-11-15T04:49:20;2.37;;;1.60;;
4839;SDS011;2434;48.486;7.964;2022-11-15T04:52:07;1.27;;;1.10;;
4839;SDS011;2434;48.486;7.964;2022-11-15T04:54:54;2.47;;;1.43;;
4839;SDS011;2434;48.486;7.964;2022-11-15T04:57:42;2.83;;;1.67;;
4839;SDS011;2434;48.486;7.964;2022-11-15T05:00:29;2.27;;;1.40;;
4839;SDS011;2434;48.486;7.964;2022-11-15T05:03:16;4.23;;;2.07;;
4839;SDS011;2434;48.486;7.964;2022-11-15T05:06:21;4.93;;;2.00;;
4839;SDS011;2434;48.486;7.964;2022-11-15T05:09:08;2.10;;;1.20;;
4839;SDS011;2434;48.486;7.964;2022-11-15T05:11:55;2.70;;;1.40;;
4839;SDS011;2434;48.486;7.964;2022-11-15T05:14:42;2.80;;;1.77;;
4839;SDS011;2434;48.486;7.964;2022-11-15T05:17:29;1.93;;;1.60;;
4839;SDS011;2434;48.486;7.964;2022-11-15T05:20:16;5.47;;;2.00;;
4839;SDS011;2434;48.486;7.964;2022-11-15T05:23:05;3.07;;;2.77;;
4839;SDS011;2434;48.486;7.964;2022-11-15T05:25:52;2.97;;;2.40;;
4839;SDS011;2434;48.486;7.964;2022-11-15T05:28:39;2.43;;;2.23;;
4839;SDS011;2434;48.486;7.964;2022-11-15T05:31:26;1.80;;;1.70;;
4839;SDS011;2434;48.486;7.964;2022-11-15T05:34:13;2.57;;;2.20;;
4839;SDS011;2434;48.486;7.964;2022-11-15T05:37:00;2.60;;;2.33;;
4839;SDS011;2434;48.486;7.964;2022-11-15T05:39:49;2.37;;;1.60;;
4839;SDS011;2434;48.486;7.964;2022-11-15T05:42:36;2.60;;;1.70;;
4839;SDS011;2434;48.486;7.964;2022-11-15T05:45:23;3.30;;;2.07;;
4839;SDS011;2434;48.486;7.964;2022-11-15T05:48:11;3.40;;;2.00;;
4839;SDS011;2434;48.486;7.964;2022-11-15T05:50:59;14.27;;;7.60;;
4839;SDS011;2434;48.486;7.964;2022-11-15T05:53:47;10.07;;;7.00;;
4839;SDS011;2434;48.486;7.964;2022-11-15T05:56:36;2.40;;;2.10;;
4839;SDS011;2434;48.486;7.964;2022-11-15T05:59:23;4.70;;;2.53;;
4839;SDS011;2434;48.486;7.964;2022-11-15T06:02:11;3.47;;;2.90;;
4839;SDS011;2434;48.486;7.964;2022-11-15T06:04:58;5.07;;;2.80;;
4839;SDS011;2434;48.486;7.964;2022-11-15T06:07:44;2.87;;;1.80;;
4839;SDS011;2434;48.486;7.964;2022-11-15T06:10:32;2.40;;;1.80;;
4839;SDS011;2434;48.486;7.964;2022-11-15T06:13:21;2.70;;;1.63;;
4839;SDS011;2434;48.486;7.964;2022-11-15T06:16:07;1.77;;;1.50;;
4839;SDS011;2434;48.486;7.964;2022-11-15T06:18:56;4.03;;;1.97;;
4839;SDS011;2434;48.486;7.964;2022-11-15T06:21:43;3.70;;;2.77;;
4839;SDS011;2434;48.486;7.964;2022-11-15T06:24:30;2.80;;;1.90;;
4839;SDS011;2434;48.486;7.964;2022-11-15T06:27:17;2.67;;;1.90;;
4839;SDS011;2434;48.486;7.964;2022-11-15T06:30:06;8.33;;;1.93;;
4839;SDS011;2434;48.486;7.964;2022-11-15T06:33:00;2.10;;;1.83;;
4839;SDS011;2434;48.486;7.964;2022-11-15T06:35:48;3.37;;;2.33;;
4839;SDS011;2434;48.486;7.964;2022-11-15T06:38:35;4.40;;;2.80;;
4839;SDS011;2434;48.486;7.964;2022-11-15T06:41:22;2.03;;;1.83;;
4839;SDS011;2434;48.486;7.964;2022-11-15T06:44:08;2.13;;;1.90;;
4839;SDS011;2434;48.486;7.964;2022-11-15T06:46:56;2.60;;;2.10;;
4839;SDS011;2434;48.486;7.964;2022-11-15T06:49:43;3.50;;;2.23;;
4839;SDS011;2434;48.486;7.964;2022-11-15T06:52:30;4.17;;;2.33;;
4839;SDS011;2434;48.486;7.964;2022-11-15T06:55:18;4.00;;;2.57;;
4839;SDS011;2434;48.486;7.964;2022-11-15T06:58:05;4.43;;;2.20;;
4839;SDS011;2434;48.486;7.964;2022-11-15T07:00:51;2.57;;;2.37;;
4839;SDS011;2434;48.486;7.964;2022-11-15T07:03:41;3.37;;;2.30;;
4839;SDS011;2434;48.486;7.964;2022-11-15T07:06:29;2.83;;;2.13;;
4839;SDS011;2434;48.486;7.964;2022-11-15T07:09:15;2.07;;;1.87;;
4839;SDS011;2434;48.486;7.964;2022-11-15T07:12:03;3.07;;;2.57;;
4839;SDS011;2434;48.486;7.964;2022-11-15T07:14:51;2.80;;;2.17;;
4839;SDS011;2434;48.486;7.964;2022-11-15T07:17:38;2.67;;;2.23;;
4839;SDS011;2434;48.486;7.964;2022-11-15T07:20:27;1.70;;;1.40;;
4839;SDS011;2434;48.486;7.964;2022-11-15T07:23:14;2.60;;;2.40;;
4839;SDS011;2434;48.486;7.964;2022-11-15T07:26:00;5.87;;;2.07;;
4839;SDS011;2434;48.486;7.964;2022-11-15T07:28:47;2.10;;;2.00;;
4839;SDS011;2434;48.486;7.964;2022-11-15T07:31:34;2.40;;;1.70;;
4839;SDS011;2434;48.486;7.964;2022-11-15T07:34:21;2.07;;;1.53;;
4839;SDS011;2434;48.486;7.964;2022-11-15T07:37:10;2.20;;;1.80;;
4839;SDS011;2434;48.486;7.964;2022-11-15T07:39:57;4.40;;;1.80;;
4839;SDS011;2434;48.486;7.964;2022-11-15T07:42:44;2.00;;;1.80;;
4839;SDS011;2434;48.486;7.964;2022-11-15T07:45:41;2.00;;;1.60;;
4839;SDS011;2434;48.486;7.964;2022-11-15T07:48:29;1.53;;;1.43;;
4839;SDS011;2434;48.486;7.964;2022-11-15T07:51:28;3.20;;;1.97;;
4839;SDS011;2434;48.486;7.964;2022-11-15T07:54:16;4.37;;;1.90;;
4839;SDS011;2434;48.486;7.964;2022-11-15T07:57:03;4.17;;;2.50;;
4839;SDS011;2434;48.486;7.964;2022-11-15T07:59:52;5.50;;;2.50;;
4839;SDS011;2434;48.486;7.964;2022-11-15T08:02:39;3.13;;;2.83;;
4839;SDS011;2434;48.486;7.964;2022-11-15T08:05:26;2.90;;;2.60;;
4839;SDS011;2434;48.486;7.964;2022-11-15T08:08:13;4.23;;;2.93;;
4839;SDS011;2434;48.486;7.964;2022-11-15T08:11:01;3.57;;;2.47;;
4839;SDS011;2434;48.486;7.964;2022-11-15T08:13:48;4.53;;;2.27;;
4839;SDS011;2434;48.486;7.964;2022-11-15T08:16:35;2.20;;;2.00;;
4839;SDS011;2434;48.486;7.964;2022-11-15T08:19:21;7.77;;;2.30;;
4839;SDS011;2434;48.486;7.964;2022-11-15T08:22:08;3.03;;;1.93;;
4839;SDS011;2434;48.486;7.964;2022-11-15T08:24:55;3.27;;;1.90;;
4839;SDS011;2434;48.486;7.964;2022-11-15T08:27:43;4.50;;;2.30;;
4839;SDS011;2434;48.486;7.964;2022-11-15T08:30:30;3.20;;;2.20;;
4839;SDS011;2434;48.486;7.964;2022-11-15T08:33:22;2.33;;;2.13;;
4839;SDS011;2434;48.486;7.964;2022-11-15T08:36:11;6.20;;;2.60;;
4839;SDS011;2434;48.486;7.964;2022-11-15T08:39:00;5.10;;;3.27;;
4839;SDS011;2434;48.486;7.964;2022-11-15T08:41:47;6.20;;;2.83;;
4839;SDS011;2434;48.486;7.964;2022-11-15T08:44:35;4.90;;;3.33;;
4839;SDS011;2434;48.486;7.964;2022-11-15T08:47:22;4.43;;;2.83;;
4839;SDS011;2434;48.486;7.964;2022-11-15T08:50:09;4.00;;;3.17;;
4839;SDS011;2434;48.486;7.964;2022-11-15T08:52:55;5.20;;;3.27;;
4839;SDS011;2434;48.486;7.964;2022-11-15T08:55:42;5.30;;;3.50;;
4839;SDS011;2434;48.486;7.964;2022-11-15T08:58:29;3.80;;;2.83;;
4839;SDS011;2434;48.486;7.964;2022-11-15T09:01:19;3.63;;;2.80;;
4839;SDS011;2434;48.486;7.964;2022-11-15T09:04:07;3.30;;;2.77;;
4839;SDS011;2434;48.486;7.964;2022-11-15T09:06:54;3.23;;;2.80;;
4839;SDS011;2434;48.486;7.964;2022-11-15T09:09:41;2.93;;;2.53;;
4839;SDS011;2434;48.486;7.964;2022-11-15T09:12:29;3.00;;;2.70;;
4839;SDS011;2434;48.486;7.964;2022-11-15T09:15:15;6.47;;;2.87;;
4839;SDS011;2434;48.486;7.964;2022-11-15T09:18:05;4.57;;;2.67;;
4839;SDS011;2434;48.486;7.964;2022-11-15T09:20:54;11.00;;;2.50;;
4839;SDS011;2434;48.486;7.964;2022-11-15T09:23:42;8.10;;;2.17;;
4839;SDS011;2434;48.486;7.964;2022-11-15T09:26:29;2.03;;;1.80;;
4839;SDS011;2434;48.486;7.964;2022-11-15T09:29:16;3.37;;;2.00;;
4839;SDS011;2434;48.486;7.964;2022-11-15T09:32:03;2.60;;;1.97;;
4839;SDS011;2434;48.486;7.964;2022-11-15T09:34:52;3.47;;;2.50;;
4839;SDS011;2434;48.486;7.964;2022-11-15T09:37:39;2.60;;;2.40;;
4839;SDS011;2434;48.486;7.964;2022-11-15T09:40:26;2.60;;;2.40;;
4839;SDS011;2434;48.486;7.964;2022-11-15T09:43:25;2.40;;;2.20;;
4839;SDS011;2434;48.486;7.964;2022-11-15T09:46:20;4.47;;;2.30;;
4839;SDS011;2434;48.486;7.964;2022-11-15T09:49:08;3.77;;;2.50;;
4839;SDS011;2434;48.486;7.964;2022-11-15T09:52:02;3.77;;;2.80;;
4839;SDS011;2434;48.486;7.964;2022-11-15T09:54:31;2.83;;;2.30;;
4839;SDS011;2434;48.486;7.964;2022-11-15T09:57:21;4.20;;;3.10;;
4839;SDS011;2434;48.486;7.964;2022-11-15T10:00:11;3.43;;;2.70;;
4839;SDS011;2434;48.486;7.964;2022-11-15T10:03:08;6.60;;;3.37;;
4839;SDS011;2434;48.486;7.964;2022-11-15T10:05:40;6.40;;;3.23;;
4839;SDS011;2434;48.486;7.964;2022-11-15T10:08:17;2.63;;;2.33;;
4839;SDS011;2434;48.486;7.964;2022-11-15T10:11:02;5.03;;;3.20;;
4839;SDS011;2434;48.486;7.964;2022-11-15T10:13:53;3.20;;;2.17;;
4839;SDS011;2434;48.486;7.964;2022-11-15T10:16:31;3.37;;;2.30;;
4839;SDS011;2434;48.486;7.964;2022-11-15T10:19:20;2.40;;;2.23;;
4839;SDS011;2434;48.486;7.964;2022-11-15T10:21:56;2.83;;;2.00;;
4839;SDS011;2434;48.486;7.964;2022-11-15T10:24:42;2.50;;;2.30;;
4839;SDS011;2434;48.486;7.964;2022-11-15T10:27:13;4.07;;;2.23;;
4839;SDS011;2434;48.486;7.964;2022-11-15T10:29:44;2.40;;;2.20;;
4839;SDS011;2434;48.486;7.964;2022-11-15T10:32:13;5.37;;;3.50;;
4839;SDS011;2434;48.486;7.964;2022-11-15T10:34:43;2.43;;;2.13;;
4839;SDS011;2434;48.486;7.964;2022-11-15T10:37:11;2.40;;;1.83;;
4839;SDS011;2434;48.486;7.964;2022-11-15T10:39:39;1.70;;;1.60;;
4839;SDS011;2434;48.486;7.964;2022-11-15T10:42:16;3.10;;;1.87;;
4839;SDS011;2434;48.486;7.964;2022-11-15T10:44:45;1.90;;;1.60;;
4839;SDS011;2434;48.486;7.964;2022-11-15T10:47:27;3.10;;;2.53;;
4839;SDS011;2434;48.486;7.964;2022-11-15T10:50:05;1.60;;;1.50;;
4839;SDS011;2434;48.486;7.964;2022-11-15T10:52:52;2.77;;;2.43;;
4839;SDS011;2434;48.486;7.964;2022-11-15T10:55:26;2.87;;;1.70;;
4839;SDS011;2434;48.486;7.964;2022-11-15T10:58:00;3.87;;;1.50;;
4839;SDS011;2434;48.486;7.964;2022-11-15T11:00:34;3.10;;;1.53;;
4839;SDS011;2434;48.486;7.964;2022-11-15T11:03:06;3.47;;;1.73;;
4839;SDS011;2434;48.486;7.964;2022-11-15T11:05:50;1.93;;;1.73;;
4839;SDS011;2434;48.486;7.964;2022-11-15T11:08:32;9.57;;;5.77;;
4839;SDS011;2434;48.486;7.964;2022-11-15T11:11:02;11.40;;;7.27;;
4839;SDS011;2434;48.486;7.964;2022-11-15T11:13:32;3.77;;;3.37;;
4839;SDS011;2434;48.486;7.964;2022-11-15T11:16:18;3.73;;;2.90;;
4839;SDS011;2434;48.486;7.964;2022-11-15T11:19:10;3.47;;;2.53;;
4839;SDS011;2434;48.486;7.964;2022-11-15T11:21:57;4.47;;;3.10;;
4839;SDS011;2434;48.486;7.964;2022-11-15T11:24:32;6.53;;;3.67;;
4839;SDS011;2434;48.486;7.964;2022-11-15T11:27:12;5.33;;;3.30;;
4839;SDS011;2434;48.486;7.964;2022-11-15T11:29:51;6.07;;;3.30;;
4839;SDS011;2434;48.486;7.964;2022-11-15T11:32:34;6.17;;;3.40;;
4839;SDS011;2434;48.486;7.964;2022-11-15T11:35:22;5.80;;;3.80;;
4839;SDS011;2434;48.486;7.964;2022-11-15T11:37:57;6.27;;;3.70;;
4839;SDS011;2434;48.486;7.964;2022-11-15T11:40:37;7.33;;;4.20;;
4839;SDS011;2434;48.486;7.964;2022-11-15T11:43:15;5.00;;;4.17;;
4839;SDS011;2434;48.486;7.964;2022-11-15T11:45:55;5.10;;;3.70;;
4839;SDS011;2434;48.486;7.964;2022-11-15T11:48:39;11.20;;;3.40;;
4839;SDS011;2434;48.486;7.964;2022-11-15T11:51:12;7.13;;;3.40;;
4839;SDS011;2434;48.486;7.964;2022-11-15T11:53:47;2.43;;;2.23;;
4839;SDS011;2434;48.486;7.964;2022-11-15T11:56:23;2.70;;;2.47;;
4839;SDS011;2434;48.486;7.964;2022-11-15T11:58:57;2.30;;;2.10;;
4839;SDS011;2434;48.486;7.964;2022-11-15T12:01:30;7.13;;;2.37;;
4839;SDS011;2434;48.486;7.964;2022-11-15T12:04:04;2.60;;;2.40;;
4839;SDS011;2434;48.486;7.964;2022-11-15T12:06:41;2.60;;;2.30;;
4839;SDS011;2434;48.486;7.964;2022-11-15T12:09:14;2.13;;;1.80;;
4839;SDS011;2434;48.486;7.964;2022-11-15T12:11:49;2.97;;;1.83;;
4839;SDS011;2434;48.486;7.964;2022-11-15T12:14:25;3.17;;;2.10;;
4839;SDS011;2434;48.486;7.964;2022-11-15T12:16:58;2.23;;;2.00;;
4839;SDS011;2434;48.486;7.964;2022-11-15T12:19:28;2.27;;;1.50;;
4839;SDS011;2434;48.486;7.964;2022-11-15T12:21:59;3.83;;;2.47;;
4839;SDS011;2434;48.486;7.964;2022-11-15T12:24:33;2.30;;;1.80;;
4839;SDS011;2434;48.486;7.964;2022-11-15T12:27:11;5.00;;;3.43;;
4839;SDS011;2434;48.486;7.964;2022-11-15T12:29:53;4.87;;;2.90;;
4839;SDS011;2434;48.486;7.964;2022-11-15T12:32:26;4.03;;;2.80;;
4839;SDS011;2434;48.486;7.964;2022-11-15T12:34:57;4.93;;;2.83;;
4839;SDS011;2434;48.486;7.964;2022-11-15T12:37:34;5.83;;;3.03;;
4839;SDS011;2434;48.486;7.964;2022-11-15T12:40:29;5.00;;;2.63;;
4839;SDS011;2434;48.486;7.964;2022-11-15T12:46:05;1.50;;;1.30;;
4839;SDS011;2434;48.486;7.964;2022-11-15T12:48:50;2.00;;;1.50;;
4839;SDS011;2434;48.486;7.964;2022-11-15T12:51:21;1.50;;;1.40;;
4839;SDS011;2434;48.486;7.964;2022-11-15T13:03:31;1.03;;;0.93;;
4839;SDS011;2434;48.486;7.964;2022-11-15T13:06:10;1.93;;;1.33;;
4839;SDS011;2434;48.486;7.964;2022-11-15T13:09:49;2.10;;;1.20;;
4839;SDS011;2434;48.486;7.964;2022-11-15T13:12:11;1.20;;;1.10;;
4839;SDS011;2434;48.486;7.964;2022-11-15T13:18:29;2.07;;;1.30;;
4839;SDS011;2434;48.486;7.964;2022-11-15T13:21:16;2.67;;;1.90;;
4839;SDS011;2434;48.486;7.964;2022-11-15T13:24:09;2.00;;;1.77;;
4839;SDS011;2434;48.486;7.964;2022-11-15T13:26:40;1.70;;;1.60;;
4839;SDS011;2434;48.486;7.964;2022-11-15T13:29:18;3.43;;;2.50;;
4839;SDS011;2434;48.486;7.964;2022-11-15T13:31:47;2.07;;;1.60;;
4839;SDS011;2434;48.486;7.964;2022-11-15T13:34:27;2.40;;;1.50;;
4839;SDS011;2434;48.486;7.964;2022-11-15T13:37:27;3.57;;;1.80;;
4839;SDS011;2434;48.486;7.964;2022-11-15T13:42:49;2.20;;;1.80;;
4839;SDS011;2434;48.486;7.964;2022-11-15T13:45:19;1.80;;;1.70;;
4839;SDS011;2434;48.486;7.964;2022-11-15T13:47:51;2.00;;;1.80;;
4839;SDS011;2434;48.486;7.964;2022-11-15T13:50:24;1.70;;;1.33;;
4839;SDS011;2434;48.486;7.964;2022-11-15T13:52:56;1.47;;;1.30;;
4839;SDS011;2434;48.486;7.964;2022-11-15T13:55:26;3.27;;;2.17;;
4839;SDS011;2434;48.486;7.964;2022-11-15T13:57:56;1.70;;;1.60;;
4839;SDS011;2434;48.486;7.964;2022-11-15T14:00:36;2.50;;;1.27;;
4839;SDS011;2434;48.486;7.964;2022-11-15T14:03:12;4.30;;;1.57;;
4839;SDS011;2434;48.486;7.964;2022-11-15T14:05:47;1.83;;;1.57;;
4839;SDS011;2434;48.486;7.964;2022-11-15T14:08:31;2.70;;;1.50;;
4839;SDS011;2434;48.486;7.964;2022-11-15T14:11:07;1.90;;;1.80;;
4839;SDS011;2434;48.486;7.964;2022-11-15T14:13:37;1.83;;;1.57;;
4839;SDS011;2434;48.486;7.964;2022-11-15T14:16:15;4.87;;;2.53;;
4839;SDS011;2434;48.486;7.964;2022-11-15T14:18:45;2.73;;;2.50;;
4839;SDS011;2434;48.486;7.964;2022-11-15T14:21:17;4.27;;;2.43;;
4839;SDS011;2434;48.486;7.964;2022-11-15T14:23:46;5.30;;;2.87;;
4839;SDS011;2434;48.486;7.964;2022-11-15T14:26:27;2.20;;;2.00;;
4839;SDS011;2434;48.486;7.964;2022-11-15T14:28:56;3.57;;;2.63;;
4839;SDS011;2434;48.486;7.964;2022-11-15T14:31:25;2.30;;;2.10;;
4839;SDS011;2434;48.486;7.964;2022-11-15T14:33:53;4.43;;;2.27;;
4839;SDS011;2434;48.486;7.964;2022-11-15T14:36:23;5.10;;;1.47;;
4839;SDS011;2434;48.486;7.964;2022-11-15T14:38:51;1.73;;;1.60;;
4839;SDS011;2434;48.486;7.964;2022-11-15T14:41:21;4.70;;;2.80;;
4839;SDS011;2434;48.486;7.964;2022-11-15T14:43:51;5.87;;;4.07;;
4839;SDS011;2434;48.486;7.964;2022-11-15T14:46:20;5.33;;;3.83;;
4839;SDS011;2434;48.486;7.964;2022-11-15T14:48:48;4.40;;;3.00;;
4839;SDS011;2434;48.486;7.964;2022-11-15T14:51:17;3.00;;;2.70;;
4839;SDS011;2434;48.486;7.964;2022-11-15T14:53:47;2.43;;;2.07;;
4839;SDS011;2434;48.486;7.964;2022-11-15T14:56:16;2.97;;;2.20;;
4839;SDS011;2434;48.486;7.964;2022-11-15T14:58:44;2.90;;;2.60;;
4839;SDS011;2434;48.486;7.964;2022-11-15T15:01:13;3.97;;;2.70;;
4839;SDS011;2434;48.486;7.964;2022-11-15T15:03:46;5.80;;;2.87;;
4839;SDS011;2434;48.486;7.964;2022-11-15T15:06:14;3.20;;;2.63;;
4839;SDS011;2434;48.486;7.964;2022-11-15T15:08:44;5.00;;;3.23;;
4839;SDS011;2434;48.486;7.964;2022-11-15T15:11:16;5.10;;;3.93;;
4839;SDS011;2434;48.486;7.964;2022-11-15T15:13:48;4.30;;;3.90;;
4839;SDS011;2434;48.486;7.964;2022-11-15T15:16:16;3.87;;;3.47;;
4839;SDS011;2434;48.486;7.964;2022-11-15T15:18:45;3.50;;;2.80;;
4839;SDS011;2434;48.486;7.964;2022-11-15T15:21:17;2.63;;;2.43;;
4839;SDS011;2434;48.486;7.964;2022-11-15T15:23:49;7.37;;;2.73;;
4839;SDS011;2434;48.486;7.964;2022-11-15T15:26:20;4.33;;;2.87;;
4839;SDS011;2434;48.486;7.964;2022-11-15T15:28:49;4.30;;;3.70;;
4839;SDS011;2434;48.486;7.964;2022-11-15T15:31:18;4.10;;;3.57;;
4839;SDS011;2434;48.486;7.964;2022-11-15T15:33:47;7.20;;;4.10;;
4839;SDS011;2434;48.486;7.964;2022-11-15T15:36:17;5.53;;;3.90;;
4839;SDS011;2434;48.486;7.964;2022-11-15T15:38:46;6.80;;;4.30;;
4839;SDS011;2434;48.486;7.964;2022-11-15T15:41:15;6.10;;;4.23;;
4839;SDS011;2434;48.486;7.964;2022-11-15T15:43:45;8.87;;;5.37;;
4839;SDS011;2434;48.486;7.964;2022-11-15T15:46:14;7.03;;;4.70;;
4839;SDS011;2434;48.486;7.964;2022-11-15T15:48:44;7.53;;;4.53;;
4839;SDS011;2434;48.486;7.964;2022-11-15T15:51:13;6.13;;;4.20;;
4839;SDS011;2434;48.486;7.964;2022-11-15T15:53:46;6.13;;;5.17;;
4839;SDS011;2434;48.486;7.964;2022-11-15T15:56:15;17.63;;;10.00;;
4839;SDS011;2434;48.486;7.964;2022-11-15T15:58:45;6.53;;;5.30;;
4839;SDS011;2434;48.486;7.964;2022-11-15T16:01:13;8.83;;;6.03;;
4839;SDS011;2434;48.486;7.964;2022-11-15T16:03:42;8.10;;;4.43;;
4839;SDS011;2434;48.486;7.964;2022-11-15T16:06:25;4.30;;;3.53;;
4839;SDS011;2434;48.486;7.964;2022-11-15T16:09:02;6.10;;;4.00;;
4839;SDS011;2434;48.486;7.964;2022-11-15T16:11:41;8.27;;;5.07;;
4839;SDS011;2434;48.486;7.964;2022-11-15T16:14:12;10.73;;;5.20;;
4839;SDS011;2434;48.486;7.964;2022-11-15T16:16:41;7.50;;;3.43;;
4839;SDS011;2434;48.486;7.964;2022-11-15T16:19:09;7.10;;;3.90;;
4839;SDS011;2434;48.486;7.964;2022-11-15T16:21:39;7.70;;;4.03;;
4839;SDS011;2434;48.486;7.964;2022-11-15T16:24:07;6.63;;;3.90;;
4839;SDS011;2434;48.486;7.964;2022-11-15T16:26:36;5.33;;;3.90;;
4839;SDS011;2434;48.486;7.964;2022-11-15T16:29:05;7.93;;;4.40;;
4839;SDS011;2434;48.486;7.964;2022-11-15T16:31:37;14.00;;;4.20;;
4839;SDS011;2434;48.486;7.964;2022-11-15T16:34:05;4.40;;;3.73;;
4839;SDS011;2434;48.486;7.964;2022-11-15T16:36:34;9.43;;;4.83;;
4839;SDS011;2434;48.486;7.964;2022-11-15T16:39:03;7.17;;;4.90;;
4839;SDS011;2434;48.486;7.964;2022-11-15T16:41:31;4.80;;;4.07;;
4839;SDS011;2434;48.486;7.964;2022-11-15T16:44:00;8.13;;;5.40;;
4839;SDS011;2434;48.486;7.964;2022-11-15T16:46:28;10.10;;;6.40;;
4839;SDS011;2434;48.486;7.964;2022-11-15T16:48:58;9.70;;;6.53;;
4839;SDS011;2434;48.486;7.964;2022-11-15T16:51:26;7.13;;;5.40;;
4839;SDS011;2434;48.486;7.964;2022-11-15T16:53:54;9.67;;;6.00;;
4839;SDS011;2434;48.486;7.964;2022-11-15T16:56:23;9.03;;;5.27;;
4839;SDS011;2434;48.486;7.964;2022-11-15T16:58:54;8.50;;;6.33;;
4839;SDS011;2434;48.486;7.964;2022-11-15T17:01:25;7.33;;;6.40;;
4839;SDS011;2434;48.486;7.964;2022-11-15T17:03:55;9.10;;;5.90;;
4839;SDS011;2434;48.486;7.964;2022-11-15T17:06:37;9.43;;;6.60;;
4839;SDS011;2434;48.486;7.964;2022-11-15T17:09:08;9.50;;;5.60;;
4839;SDS011;2434;48.486;7.964;2022-11-15T17:11:38;7.83;;;6.20;;
4839;SDS011;2434;48.486;7.964;2022-11-15T17:14:08;6.20;;;5.60;;